Terminal Aerodrome Forecast
Issued by NWS

Home | Current Version | Previous Version | Text Only | Print | Product List | Glossary Off
Versions: 1 2 3 4 5 6 7 8 9 10 11 12 13 14 15 16 17 18 19 20 21 22

000
FTUS42 KMHX 120500
TAFPGV
TAF
KPGV 120540Z 1206/1306 23006KT P6SM BKN080
     FM121400 33005KT P6SM VCSH BKN015 OVC040
     FM130500 VRB03KT 3SM -SHRA BR BKN008 OVC015
      AMD LTD TO CLD VIS AND WIND=

USA.gov is the U.S. government's official web portal to all federal, state and local government web resources and services.